createdAt,value
2022-10-20T00:02:18.416Z,4.80
2022-10-20T00:04:46.368Z,3.73
2022-10-20T00:07:14.292Z,4.00
2022-10-20T00:09:43.726Z,4.40
2022-10-20T00:12:11.664Z,4.03
2022-10-20T00:14:39.961Z,4.27
2022-10-20T00:17:08.037Z,4.73
2022-10-20T00:19:35.908Z,4.90
2022-10-20T00:22:03.792Z,4.63
2022-10-20T00:24:31.710Z,5.30
2022-10-20T00:27:01.005Z,4.80
2022-10-20T00:29:28.949Z,4.57
2022-10-20T00:31:56.838Z,4.87
2022-10-20T00:34:24.748Z,4.73
2022-10-20T00:36:52.679Z,5.17
2022-10-20T00:39:20.955Z,4.80
2022-10-20T00:41:50.479Z,4.70
2022-10-20T00:44:36.912Z,4.60
2022-10-20T00:47:10.776Z,4.83
2022-10-20T00:49:38.857Z,4.40
2022-10-20T00:52:06.967Z,4.50
2022-10-20T00:54:34.968Z,4.90
2022-10-20T00:59:37.244Z,4.90
2022-10-20T01:02:08.236Z,4.97
2022-10-20T01:04:36.477Z,5.07
2022-10-20T01:07:04.577Z,5.27
2022-10-20T01:09:32.975Z,4.87
2022-10-20T01:12:06.489Z,5.67
2022-10-20T01:14:39.712Z,6.13
2022-10-20T01:17:15.129Z,5.23
2022-10-20T01:19:54.694Z,5.00
2022-10-20T01:22:28.292Z,4.70
2022-10-20T01:25:13.791Z,6.07
2022-10-20T01:27:43.698Z,5.17
2022-10-20T01:30:15.254Z,5.70
2022-10-20T01:33:00.830Z,5.60
2022-10-20T01:35:33.527Z,5.47
2022-10-20T01:38:05.773Z,5.47
2022-10-20T01:40:35.997Z,6.03
2022-10-20T01:43:07.071Z,5.57
2022-10-20T01:45:36.251Z,6.17
2022-10-20T01:48:06.281Z,5.13
2022-10-20T01:50:34.919Z,6.10
2022-10-20T01:53:03.169Z,5.70
2022-10-20T01:55:31.844Z,5.97
2022-10-20T01:58:16.266Z,5.73
2022-10-20T02:00:44.780Z,6.30
2022-10-20T02:03:27.652Z,5.30
2022-10-20T02:06:03.525Z,6.10
2022-10-20T02:08:32.901Z,6.27
2022-10-20T02:11:03.023Z,6.87
2022-10-20T02:13:32.687Z,5.60
2022-10-20T02:16:03.125Z,7.00
2022-10-20T02:18:33.134Z,7.10
2022-10-20T02:21:02.483Z,6.43
2022-10-20T02:23:35.064Z,7.77
2022-10-20T02:26:07.396Z,7.03
2022-10-20T02:28:37.509Z,6.10
2022-10-20T02:31:05.939Z,6.67
2022-10-20T02:33:35.227Z,7.30
2022-10-20T02:36:05.431Z,7.10
2022-10-20T02:38:33.357Z,6.27
2022-10-20T02:41:01.411Z,6.67
2022-10-20T02:43:29.293Z,6.33
2022-10-20T02:45:58.815Z,7.27
2022-10-20T02:48:26.876Z,6.80
2022-10-20T02:50:55.163Z,7.40
2022-10-20T02:53:23.068Z,6.13
2022-10-20T02:55:51.034Z,6.00
2022-10-20T02:58:18.913Z,6.60
2022-10-20T03:00:46.807Z,5.97
2022-10-20T03:03:16.350Z,6.10
2022-10-20T03:05:44.669Z,5.63
2022-10-20T03:08:12.645Z,6.53
2022-10-20T03:10:41.952Z,6.70
2022-10-20T03:13:10.116Z,6.03
2022-10-20T03:15:38.320Z,7.07
2022-10-20T03:18:06.472Z,6.30
2022-10-20T03:20:35.967Z,6.47
2022-10-20T03:23:03.882Z,6.80
2022-10-20T03:25:32.804Z,6.67
2022-10-20T03:28:01.659Z,6.27
2022-10-20T03:30:32.013Z,6.63
2022-10-20T03:33:00.549Z,5.77
2022-10-20T03:35:28.955Z,6.57
2022-10-20T03:37:59.067Z,7.93
2022-10-20T03:40:27.007Z,6.63
2022-10-20T03:42:55.196Z,6.50
2022-10-20T03:45:23.478Z,6.10
2022-10-20T03:47:51.520Z,5.87
2022-10-20T03:50:19.489Z,6.57
2022-10-20T03:52:48.716Z,5.97
2022-10-20T03:55:19.438Z,6.13
2022-10-20T03:57:47.471Z,5.97
2022-10-20T04:00:16.180Z,5.80
2022-10-20T04:02:45.095Z,5.87
2022-10-20T04:05:14.191Z,6.80
2022-10-20T04:07:42.464Z,6.40
2022-10-20T04:10:11.068Z,6.20
2022-10-20T04:12:40.847Z,5.90
2022-10-20T04:15:09.555Z,6.03
2022-10-20T04:17:37.575Z,6.17
2022-10-20T04:20:05.969Z,6.47
2022-10-20T04:22:34.203Z,6.83
2022-10-20T04:25:06.249Z,6.57
2022-10-20T04:27:34.595Z,6.20
2022-10-20T04:30:05.016Z,5.77
2022-10-20T04:32:33.520Z,6.17
2022-10-20T04:35:04.463Z,5.73
2022-10-20T04:37:33.147Z,6.03
2022-10-20T04:40:01.634Z,6.00
2022-10-20T04:42:29.765Z,6.17
2022-10-20T04:47:34.810Z,6.20
2022-10-20T04:50:04.906Z,6.17
2022-10-20T04:52:35.593Z,6.07
2022-10-20T04:55:03.692Z,6.10
2022-10-20T04:57:32.248Z,6.20
2022-10-20T05:00:00.475Z,7.13
2022-10-20T05:02:28.643Z,6.53
2022-10-20T05:04:58.260Z,7.10
2022-10-20T05:07:26.178Z,5.83
2022-10-20T05:09:54.607Z,5.83
2022-10-20T05:12:25.499Z,6.23
2022-10-20T05:14:53.579Z,7.07
2022-10-20T05:17:23.748Z,7.00
2022-10-20T05:19:52.122Z,6.93
2022-10-20T05:22:21.579Z,6.87
2022-10-20T05:24:49.987Z,7.43
2022-10-20T05:27:18.362Z,7.17
2022-10-20T05:29:46.312Z,7.23
2022-10-20T05:32:14.275Z,7.53
2022-10-20T05:34:42.173Z,6.67
2022-10-20T05:37:10.038Z,7.30
2022-10-20T05:39:39.406Z,6.30
2022-10-20T05:42:07.603Z,6.40
2022-10-20T05:44:35.638Z,6.90
2022-10-20T05:47:03.634Z,6.33
2022-10-20T05:49:31.589Z,7.40
2022-10-20T05:51:59.579Z,6.57
2022-10-20T05:54:27.513Z,7.47
2022-10-20T05:56:56.846Z,7.47
2022-10-20T05:59:24.807Z,7.40
2022-10-20T06:01:53.035Z,7.27
2022-10-20T06:04:23.706Z,7.23
2022-10-20T06:06:52.255Z,8.10
2022-10-20T06:09:22.938Z,7.93
2022-10-20T06:11:53.435Z,7.50
2022-10-20T06:14:22.983Z,7.90
2022-10-20T06:16:51.639Z,8.03
2022-10-20T06:19:20.116Z,7.37
2022-10-20T06:22:19.207Z,7.70
2022-10-20T06:24:46.899Z,7.10
2022-10-20T06:27:14.563Z,8.40
2022-10-20T06:29:43.602Z,8.27
2022-10-20T06:32:11.843Z,8.33
2022-10-20T06:34:42.651Z,8.77
2022-10-20T06:37:10.640Z,8.73
2022-10-20T06:39:38.960Z,8.90
2022-10-20T06:42:09.705Z,9.53
2022-10-20T06:44:39.915Z,8.83
2022-10-20T06:47:10.381Z,8.47
2022-10-20T06:49:38.130Z,8.30
2022-10-20T06:52:05.984Z,8.87
2022-10-20T06:54:33.802Z,9.87
2022-10-20T06:57:01.498Z,9.13
2022-10-20T06:59:29.116Z,9.43
2022-10-20T07:01:56.847Z,9.13
2022-10-20T07:04:25.991Z,8.87
2022-10-20T07:06:56.630Z,8.23
2022-10-20T07:09:24.297Z,7.70
2022-10-20T07:11:52.701Z,8.47
2022-10-20T07:14:20.522Z,8.10
2022-10-20T07:16:48.212Z,7.83
2022-10-20T07:19:15.893Z,7.33
2022-10-20T07:21:45.937Z,6.73
2022-10-20T07:24:13.896Z,6.23
2022-10-20T07:26:42.120Z,5.87
2022-10-20T07:29:12.770Z,6.33
2022-10-20T07:31:41.764Z,6.47
2022-10-20T07:34:27.545Z,6.03
2022-10-20T07:36:58.106Z,5.97
2022-10-20T07:39:25.799Z,5.87
2022-10-20T07:41:56.712Z,5.73
2022-10-20T07:44:25.495Z,7.43
2022-10-20T07:46:53.376Z,6.33
2022-10-20T07:52:10.186Z,7.03
2022-10-20T07:54:38.028Z,6.40
2022-10-20T07:57:05.760Z,6.87
2022-10-20T07:59:33.556Z,6.23
2022-10-20T08:02:01.274Z,6.40
2022-10-20T08:04:31.468Z,7.33
2022-10-20T08:06:59.366Z,7.03
2022-10-20T08:09:28.599Z,6.13
2022-10-20T08:11:56.507Z,6.13
2022-10-20T08:14:27.016Z,5.93
2022-10-20T08:17:04.339Z,6.17
2022-10-20T08:22:16.406Z,6.30
2022-10-20T08:24:45.663Z,5.60
2022-10-20T08:27:13.608Z,5.93
2022-10-20T08:29:41.325Z,5.43
2022-10-20T08:32:09.084Z,6.03
2022-10-20T08:34:36.720Z,5.77
2022-10-20T08:37:04.527Z,5.50
2022-10-20T08:39:32.373Z,5.87
2022-10-20T08:42:09.605Z,5.90
2022-10-20T08:44:39.223Z,5.83
2022-10-20T08:47:14.692Z,5.60
2022-10-20T08:49:42.385Z,5.47
2022-10-20T08:52:11.549Z,5.77
2022-10-20T08:54:39.220Z,6.13
2022-10-20T08:57:13.316Z,6.57
2022-10-20T08:59:41.026Z,5.03
2022-10-20T09:02:14.608Z,5.57
2022-10-20T09:07:19.941Z,5.40
2022-10-20T09:09:47.970Z,5.10
2022-10-20T09:12:18.146Z,5.50
2022-10-20T09:14:45.771Z,5.37
2022-10-20T09:17:16.934Z,5.53
2022-10-20T09:19:46.059Z,5.10
2022-10-20T09:22:14.642Z,5.73
2022-10-20T09:24:43.682Z,5.33
2022-10-20T09:27:21.368Z,6.20
2022-10-20T09:29:49.138Z,5.23
2022-10-20T09:32:45.496Z,4.43
2022-10-20T09:35:13.327Z,5.27
2022-10-20T09:37:41.159Z,5.40
2022-10-20T09:40:15.237Z,5.20
2022-10-20T09:42:47.015Z,4.77
2022-10-20T09:45:18.959Z,5.20
2022-10-20T09:47:47.716Z,5.37
2022-10-20T09:50:22.392Z,4.93
2022-10-20T09:52:50.297Z,4.90
2022-10-20T09:55:21.915Z,5.43
2022-10-20T09:57:50.967Z,5.80
2022-10-20T10:00:36.845Z,4.37
2022-10-20T10:03:19.955Z,4.77
2022-10-20T10:05:48.422Z,4.77
2022-10-20T10:08:16.410Z,5.10
2022-10-20T10:10:45.209Z,5.10
2022-10-20T10:13:26.652Z,4.90
2022-10-20T10:16:04.752Z,5.57
2022-10-20T10:18:32.542Z,4.63
2022-10-20T10:21:02.071Z,4.33
2022-10-20T10:23:30.374Z,4.80
2022-10-20T10:26:02.329Z,5.00
2022-10-20T10:28:40.015Z,4.73
2022-10-20T10:31:22.498Z,4.13
2022-10-20T10:33:52.305Z,5.33
2022-10-20T10:36:26.555Z,5.20
2022-10-20T10:38:54.888Z,4.83
2022-10-20T10:41:25.205Z,4.63
2022-10-20T10:43:58.356Z,4.43
2022-10-20T10:46:27.905Z,4.50
2022-10-20T10:49:02.703Z,4.97
2022-10-20T10:51:36.067Z,5.73
2022-10-20T10:54:12.167Z,4.63
2022-10-20T10:56:44.055Z,4.20
2022-10-20T10:59:13.954Z,4.87
2022-10-20T11:01:51.830Z,4.33
2022-10-20T11:04:30.578Z,4.60
2022-10-20T11:07:02.908Z,4.43
2022-10-20T11:09:34.116Z,4.93
2022-10-20T11:12:14.055Z,4.40
2022-10-20T11:14:53.621Z,5.03
2022-10-20T11:17:25.721Z,4.53
2022-10-20T11:20:06.675Z,4.60
2022-10-20T11:22:38.886Z,4.10
2022-10-20T11:25:12.311Z,4.27
2022-10-20T11:27:40.139Z,4.47
2022-10-20T11:30:18.377Z,4.23
2022-10-20T11:32:50.138Z,4.70
2022-10-20T11:35:23.064Z,4.73
2022-10-20T11:37:52.691Z,4.23
2022-10-20T11:40:23.653Z,4.13
2022-10-20T11:42:55.816Z,3.60
2022-10-20T11:45:27.883Z,4.50
2022-10-20T11:47:59.290Z,3.73
2022-10-20T11:50:27.068Z,4.43
2022-10-20T11:53:00.694Z,5.60
2022-10-20T11:55:34.536Z,4.30
2022-10-20T11:58:11.779Z,4.90
2022-10-20T12:00:56.330Z,4.50
2022-10-20T12:03:35.239Z,4.30
2022-10-20T12:06:33.086Z,4.50
2022-10-20T12:09:15.705Z,4.23
2022-10-20T12:11:49.168Z,4.13
2022-10-20T12:14:20.399Z,5.23
2022-10-20T12:17:21.192Z,4.37
2022-10-20T12:19:52.186Z,4.97
2022-10-20T12:22:39.777Z,4.87
2022-10-20T12:25:24.267Z,4.50
2022-10-20T12:28:06.751Z,5.30
2022-10-20T12:30:44.626Z,3.77
2022-10-20T12:33:18.990Z,4.03
2022-10-20T12:36:01.956Z,4.57
2022-10-20T12:38:33.654Z,5.17
2022-10-20T12:41:02.260Z,4.27
2022-10-20T12:43:31.640Z,4.10
2022-10-20T12:46:03.529Z,4.60
2022-10-20T12:48:34.914Z,4.23
2022-10-20T12:51:08.142Z,4.33
2022-10-20T12:53:37.283Z,4.40
2022-10-20T12:56:06.930Z,4.23
2022-10-20T12:58:35.356Z,3.83
2022-10-20T13:01:21.052Z,4.47
2022-10-20T13:03:49.160Z,4.83
2022-10-20T13:06:35.328Z,4.33
2022-10-20T13:09:21.239Z,4.00
2022-10-20T13:12:00.006Z,5.13
2022-10-20T13:14:51.639Z,4.13
2022-10-20T13:17:25.243Z,4.03
2022-10-20T13:20:01.214Z,3.80
2022-10-20T13:22:34.389Z,4.00
2022-10-20T13:25:06.305Z,3.90
2022-10-20T13:27:34.173Z,3.97
2022-10-20T13:30:02.292Z,4.20
2022-10-20T13:32:37.999Z,4.53
2022-10-20T13:35:14.165Z,3.93
2022-10-20T13:37:53.846Z,4.03
2022-10-20T13:40:27.022Z,4.03
2022-10-20T13:43:04.011Z,3.77
2022-10-20T13:45:39.451Z,3.60
2022-10-20T13:48:15.996Z,3.87
2022-10-20T13:50:45.194Z,4.20
2022-10-20T13:53:15.777Z,4.13
2022-10-20T13:55:56.883Z,4.37
2022-10-20T13:58:25.050Z,6.30
2022-10-20T14:01:00.853Z,3.80
2022-10-20T14:03:29.124Z,4.03
2022-10-20T14:05:56.803Z,4.43
2022-10-20T14:08:24.443Z,3.27
2022-10-20T14:10:54.785Z,4.10
2022-10-20T14:13:25.419Z,3.83
2022-10-20T14:15:54.358Z,4.27
2022-10-20T14:18:23.398Z,4.03
2022-10-20T14:21:00.105Z,3.17
2022-10-20T14:23:29.592Z,4.03
2022-10-20T14:25:57.736Z,3.63
2022-10-20T14:28:27.696Z,4.40
2022-10-20T14:30:55.420Z,4.00
2022-10-20T14:33:23.115Z,3.53
2022-10-20T14:35:52.838Z,3.83
2022-10-20T14:38:21.659Z,4.03
2022-10-20T14:40:53.102Z,3.73
2022-10-20T14:43:22.371Z,4.00
2022-10-20T14:45:55.770Z,3.23
2022-10-20T14:48:23.673Z,4.57
2022-10-20T14:50:51.471Z,4.23
2022-10-20T14:53:27.312Z,3.77
2022-10-20T14:55:55.245Z,4.47
2022-10-20T14:58:29.426Z,3.57
2022-10-20T15:01:11.955Z,3.87
2022-10-20T15:03:41.650Z,3.63
2022-10-20T15:06:13.816Z,3.93
2022-10-20T15:08:57.988Z,3.33
2022-10-20T15:11:27.147Z,3.77
2022-10-20T15:13:55.570Z,3.77
2022-10-20T15:16:35.370Z,6.40
2022-10-20T15:19:14.368Z,4.10
2022-10-20T15:21:41.982Z,5.07
2022-10-20T15:24:09.637Z,4.20
2022-10-20T15:26:37.339Z,4.57
2022-10-20T15:29:08.028Z,3.67
2022-10-20T15:34:10.415Z,3.63
2022-10-20T15:36:42.084Z,4.20
2022-10-20T15:39:10.554Z,3.50
2022-10-20T15:41:38.255Z,4.40
2022-10-20T15:44:11.712Z,3.80
2022-10-20T15:46:39.542Z,3.80
2022-10-20T15:49:07.455Z,4.23
2022-10-20T15:51:37.692Z,4.40
2022-10-20T15:54:07.232Z,3.97
2022-10-20T15:56:35.480Z,4.23
2022-10-20T15:59:03.380Z,4.10
2022-10-20T16:01:31.304Z,4.10
2022-10-20T16:03:59.213Z,4.80
2022-10-20T16:06:26.895Z,4.40
2022-10-20T16:08:54.824Z,4.10
2022-10-20T16:11:24.064Z,4.03
2022-10-20T16:13:51.715Z,4.33
2022-10-20T16:16:20.321Z,3.83
2022-10-20T16:18:48.148Z,4.60
2022-10-20T16:21:15.866Z,4.50
2022-10-20T16:23:44.842Z,4.60
2022-10-20T16:26:13.821Z,4.40
2022-10-20T16:28:43.322Z,4.80
2022-10-20T16:31:11.917Z,4.27
2022-10-20T16:33:39.552Z,4.80
2022-10-20T16:38:40.861Z,4.00
2022-10-20T16:41:09.942Z,4.87
2022-10-20T16:43:37.971Z,4.90
2022-10-20T16:46:07.781Z,4.33
2022-10-20T16:48:37.650Z,4.80
2022-10-20T16:51:08.714Z,4.40
2022-10-20T16:53:36.809Z,4.67
2022-10-20T16:56:05.051Z,4.70
2022-10-20T16:58:32.795Z,4.73
2022-10-20T17:01:01.835Z,4.57
2022-10-20T17:03:31.162Z,4.20
2022-10-20T17:05:59.930Z,5.30
2022-10-20T17:08:27.986Z,5.10
2022-10-20T17:10:56.312Z,5.30
2022-10-20T17:13:23.963Z,4.80
2022-10-20T17:15:51.826Z,4.77
2022-10-20T17:18:19.911Z,5.27
2022-10-20T17:20:53.059Z,4.83
2022-10-20T17:23:20.817Z,5.27
2022-10-20T17:25:48.468Z,4.97
2022-10-20T17:28:16.128Z,6.03
2022-10-20T17:30:44.391Z,5.23
2022-10-20T17:33:12.370Z,5.63
2022-10-20T17:35:40.338Z,5.53
2022-10-20T17:38:09.371Z,5.10
2022-10-20T17:40:37.819Z,5.27
2022-10-20T17:43:09.227Z,4.97
2022-10-20T17:45:38.140Z,5.03
2022-10-20T17:48:06.479Z,4.80
2022-10-20T17:50:37.238Z,4.47
2022-10-20T17:53:05.332Z,4.93
2022-10-20T17:55:35.465Z,4.63
2022-10-20T17:58:05.834Z,4.77
2022-10-20T18:00:55.547Z,4.93
2022-10-20T18:03:24.062Z,4.80
2022-10-20T18:05:51.729Z,4.50
2022-10-20T18:08:19.645Z,4.83
2022-10-20T18:10:49.156Z,4.73
2022-10-20T18:13:16.864Z,4.93
2022-10-20T18:15:44.583Z,4.33
2022-10-20T18:18:12.251Z,5.17
2022-10-20T18:20:39.904Z,5.00
2022-10-20T18:23:07.649Z,4.13
2022-10-20T18:25:36.230Z,5.43
2022-10-20T18:28:07.865Z,5.10
2022-10-20T18:30:38.528Z,5.00
2022-10-20T18:33:06.412Z,4.90
2022-10-20T18:35:37.399Z,4.97
2022-10-20T18:38:05.654Z,5.37
2022-10-20T18:40:33.923Z,5.10
2022-10-20T18:43:01.645Z,4.97
2022-10-20T18:45:30.880Z,4.97
2022-10-20T18:47:58.574Z,4.60
2022-10-20T18:50:26.229Z,4.60
2022-10-20T18:52:53.945Z,4.80
2022-10-20T18:55:21.608Z,5.60
2022-10-20T18:57:49.349Z,5.40
2022-10-20T19:00:17.218Z,4.87
2022-10-20T19:02:50.782Z,4.37
2022-10-20T19:05:18.677Z,4.43
2022-10-20T19:07:46.392Z,5.27
2022-10-20T19:10:14.100Z,4.43
2022-10-20T19:12:41.755Z,4.90
2022-10-20T19:15:09.522Z,4.97
2022-10-20T19:17:37.892Z,5.00
2022-10-20T19:20:10.078Z,5.00
2022-10-20T19:22:39.594Z,5.13
2022-10-20T19:25:08.069Z,4.73
2022-10-20T19:27:35.892Z,5.50
2022-10-20T19:30:03.687Z,5.27
2022-10-20T19:32:31.344Z,4.70
2022-10-20T19:34:59.052Z,5.40
2022-10-20T19:37:28.215Z,4.30
2022-10-20T19:39:55.898Z,4.80
2022-10-20T19:42:23.716Z,4.87
2022-10-20T19:44:51.532Z,4.50
2022-10-20T19:47:19.288Z,4.60
2022-10-20T19:49:46.968Z,4.77
2022-10-20T19:52:14.621Z,4.30
2022-10-20T19:54:43.945Z,4.60
2022-10-20T19:57:11.604Z,4.40
2022-10-20T19:59:39.398Z,5.20
2022-10-20T20:02:07.055Z,4.63
2022-10-20T20:04:37.511Z,4.97
2022-10-20T20:07:05.566Z,4.97
2022-10-20T20:09:33.341Z,4.70
2022-10-20T20:12:02.351Z,5.20
2022-10-20T20:14:30.082Z,4.80
2022-10-20T20:16:57.754Z,4.97
2022-10-20T20:19:25.485Z,5.30
2022-10-20T20:21:53.137Z,5.30
2022-10-20T20:24:20.803Z,4.87
2022-10-20T20:26:48.457Z,4.43
2022-10-20T20:29:17.655Z,4.20
2022-10-20T20:31:45.283Z,4.50
2022-10-20T20:34:12.939Z,5.97
2022-10-20T20:36:40.706Z,4.83
2022-10-20T20:39:08.494Z,4.83
2022-10-20T20:41:36.323Z,5.10
2022-10-20T20:44:08.001Z,4.13
2022-10-20T20:46:37.871Z,4.37
2022-10-20T20:49:08.274Z,4.27
2022-10-20T20:51:37.800Z,4.70
2022-10-20T20:54:05.515Z,4.97
2022-10-20T20:56:33.149Z,3.90
2022-10-20T20:59:00.786Z,3.17
2022-10-20T21:01:29.193Z,4.10
2022-10-20T21:03:58.844Z,4.23
2022-10-20T21:06:33.855Z,3.70
2022-10-20T21:09:06.541Z,3.83
2022-10-20T21:11:34.244Z,3.90
2022-10-20T21:14:01.881Z,4.67
2022-10-20T21:16:30.635Z,4.00
2022-10-20T21:19:00.604Z,4.00
2022-10-20T21:21:28.969Z,4.60
2022-10-20T21:23:57.182Z,4.17
2022-10-20T21:26:25.366Z,3.90
2022-10-20T21:28:53.080Z,3.93
2022-10-20T21:31:21.803Z,3.60
2022-10-20T21:33:50.942Z,4.23
2022-10-20T21:36:20.708Z,3.50
2022-10-20T21:38:48.847Z,5.30
2022-10-20T21:41:17.561Z,4.57
2022-10-20T21:43:47.052Z,3.80
2022-10-20T21:46:16.173Z,3.87
2022-10-20T21:48:44.450Z,4.07
2022-10-20T21:51:13.028Z,3.93
2022-10-20T21:53:42.039Z,3.63
2022-10-20T21:56:10.072Z,3.67
2022-10-20T21:58:38.059Z,4.27
2022-10-20T22:01:12.010Z,3.43
2022-10-20T22:03:39.790Z,3.67
2022-10-20T22:06:07.797Z,3.37
2022-10-20T22:08:36.081Z,3.70
2022-10-20T22:11:09.088Z,3.33
2022-10-20T22:13:37.047Z,3.83
2022-10-20T22:16:08.382Z,3.20
2022-10-20T22:18:38.127Z,3.70
2022-10-20T22:21:09.860Z,3.67
2022-10-20T22:23:40.238Z,5.00
2022-10-20T22:26:09.812Z,3.40
2022-10-20T22:28:38.084Z,3.20
2022-10-20T22:31:08.834Z,3.23
2022-10-20T22:33:37.246Z,3.67
2022-10-20T22:36:07.699Z,3.87
2022-10-20T22:38:35.348Z,4.03
2022-10-20T22:41:03.579Z,3.80
2022-10-20T22:43:32.601Z,3.30
2022-10-20T22:46:00.255Z,3.77
2022-10-20T22:48:27.915Z,3.90
2022-10-20T22:50:55.547Z,3.47
2022-10-20T22:53:24.367Z,4.23
2022-10-20T22:55:52.132Z,4.50
2022-10-20T22:58:22.018Z,3.40
2022-10-20T23:00:51.048Z,3.47
2022-10-20T23:03:18.763Z,3.30
2022-10-20T23:05:46.359Z,4.00
2022-10-20T23:08:14.016Z,3.53
2022-10-20T23:10:41.674Z,3.10
2022-10-20T23:13:09.304Z,3.87
2022-10-20T23:15:37.044Z,4.27
2022-10-20T23:18:09.114Z,3.23
2022-10-20T23:20:36.774Z,3.70
2022-10-20T23:23:06.376Z,3.40
2022-10-20T23:28:09.220Z,3.47
2022-10-20T23:30:36.893Z,4.17
2022-10-20T23:33:08.186Z,4.20
2022-10-20T23:35:36.400Z,4.27
2022-10-20T23:38:04.447Z,3.70
2022-10-20T23:40:32.341Z,3.10
2022-10-20T23:42:59.973Z,4.00
2022-10-20T23:45:27.633Z,3.20
2022-10-20T23:47:55.246Z,2.97
2022-10-20T23:50:25.980Z,3.63
2022-10-20T23:52:54.264Z,3.90
2022-10-20T23:55:21.878Z,3.53
2022-10-20T23:57:50.124Z,3.33
